Ariton, Alabama
Current Conditions -  °F | °C
As of 9:53 AM on Thursday 27 Nov 2014 (Local Time) from KLOR Reporting Station
Clear Clear  
Wind Chill: 53°   Ceiling: Unl
Heat Index: 53°   Visibility: 10mi
Dew Point: 31°   Wind: 10mph
Humidity: 43%   Direction: 340°NNW
Pressure: 30.34"   Gusts: 20mph
Location:  31.6°N, 85.72°W
Report Text: KLOR 271553Z AUTO 34009G17KT 10SM CLR 12/M01 A3034 RMK AO2 SLP274 T01171006 TSNO $
Loading
Personal Weather Stations






























Interactive Weather Map New forecast layout! Learn more

10-Day Weather Forecast

Advertisements
Track Severe Weather on mobile